createdAt,value
2024-02-29T00:02:03.463Z,34.59
2024-02-29T00:06:03.533Z,34.26
2024-02-29T00:10:03.767Z,34.92
2024-02-29T00:14:03.787Z,34.67
2024-02-29T00:18:03.947Z,34.16
2024-02-29T00:22:04.039Z,34.2
2024-02-29T00:26:04.100Z,33.85
2024-02-29T00:30:04.219Z,34.26
2024-02-29T00:34:04.405Z,34.07
2024-02-29T00:38:04.461Z,34.29
2024-02-29T00:42:04.537Z,34.65
2024-02-29T00:46:04.747Z,34
2024-02-29T00:50:04.782Z,34.51
2024-02-29T00:54:04.894Z,34.59
2024-02-29T00:58:05.150Z,34.2
2024-02-29T01:02:05.182Z,34.59
2024-02-29T01:06:05.215Z,33.67
2024-02-29T01:10:05.425Z,34.01
2024-02-29T01:14:05.455Z,34.28
2024-02-29T01:18:05.609Z,33.55
2024-02-29T01:22:05.812Z,33.73
2024-02-29T01:26:05.784Z,33.86
2024-02-29T01:30:05.914Z,34.24
2024-02-29T01:34:06.132Z,33.89
2024-02-29T01:38:06.159Z,33.88
2024-02-29T01:42:06.268Z,33.67
2024-02-29T01:46:06.376Z,34.2
2024-02-29T01:50:06.461Z,34.51
2024-02-29T01:54:06.585Z,34.2
2024-02-29T01:58:06.741Z,34.51
2024-02-29T02:02:06.818Z,34.73
2024-02-29T02:06:07.000Z,34.1
2024-02-29T02:10:07.085Z,34.04
2024-02-29T02:14:07.124Z,33.88
2024-02-29T02:18:07.299Z,34.26
2024-02-29T02:22:07.487Z,34.73
2024-02-29T02:26:07.513Z,34.42
2024-02-29T02:30:07.631Z,35.36
2024-02-29T02:34:07.720Z,35.32
2024-02-29T02:38:07.851Z,35.6
2024-02-29T02:42:07.964Z,35.48
2024-02-29T02:46:08.131Z,35.29
2024-02-29T02:50:08.179Z,35.2
2024-02-29T02:54:08.265Z,35.54
2024-02-29T02:58:08.462Z,34.8
2024-02-29T03:02:08.557Z,34.92
2024-02-29T03:06:08.634Z,35.89
2024-02-29T03:10:08.826Z,36.14
2024-02-29T03:14:08.834Z,35.46
2024-02-29T03:18:09.040Z,35.76
2024-02-29T03:22:09.131Z,36.32
2024-02-29T03:26:09.207Z,35.39
2024-02-29T03:30:09.349Z,36.36
2024-02-29T03:34:09.402Z,37.84
2024-02-29T03:38:09.508Z,37.53
2024-02-29T03:42:09.635Z,36.71
2024-02-29T03:46:09.831Z,37.3
2024-02-29T03:50:09.892Z,38.18
2024-02-29T03:54:09.982Z,38.17
2024-02-29T03:58:10.122Z,37.07
2024-02-29T04:02:10.190Z,37.83
2024-02-29T04:06:10.303Z,37.6
2024-02-29T04:10:10.496Z,38.29
2024-02-29T04:14:10.607Z,38.42
2024-02-29T04:18:10.656Z,37.71
2024-02-29T04:22:10.788Z,38.82
2024-02-29T04:26:10.871Z,38.59
2024-02-29T04:30:11.011Z,39.53
2024-02-29T04:34:11.197Z,40
2024-02-29T04:38:11.208Z,39.12
2024-02-29T04:42:11.312Z,39.76
2024-02-29T04:46:11.476Z,39.97
2024-02-29T04:50:11.544Z,40.43
2024-02-29T04:54:11.673Z,40.12
2024-02-29T04:58:11.893Z,40.43
2024-02-29T05:02:11.949Z,41.6
2024-02-29T05:06:12.002Z,40.66
2024-02-29T05:10:12.212Z,40
2024-02-29T05:14:12.239Z,39.8
2024-02-29T05:18:12.398Z,40.24
2024-02-29T05:22:12.477Z,40.94
2024-02-29T05:26:12.501Z,40.49
2024-02-29T05:30:12.690Z,40.95
2024-02-29T05:34:12.945Z,41.09
2024-02-29T05:38:12.927Z,40.89
2024-02-29T05:42:13.000Z,41.38
2024-02-29T05:46:13.157Z,39.87
2024-02-29T05:50:13.270Z,40.85
2024-02-29T05:54:13.383Z,42.34
2024-02-29T05:58:13.623Z,42.06
2024-02-29T06:02:13.748Z,41.87
2024-02-29T06:06:13.689Z,41.79
2024-02-29T06:10:13.918Z,42.45
2024-02-29T06:14:13.935Z,41.8
2024-02-29T06:18:14.077Z,42.35
2024-02-29T06:22:14.224Z,42.58
2024-02-29T06:26:14.234Z,40.73
2024-02-29T06:30:14.387Z,41.55
2024-02-29T06:34:14.551Z,42.35
2024-02-29T06:38:14.621Z,41.45
2024-02-29T06:42:14.756Z,42.37
2024-02-29T06:46:14.898Z,42.08
2024-02-29T06:50:14.937Z,41.47
2024-02-29T06:54:15.110Z,42.06
2024-02-29T06:58:15.256Z,40.9
2024-02-29T07:02:15.289Z,41.73
2024-02-29T07:06:15.463Z,41.15
2024-02-29T07:10:15.589Z,40.94
2024-02-29T07:14:15.635Z,41.26
2024-02-29T07:18:15.753Z,40.46
2024-02-29T07:22:15.966Z,41.16
2024-02-29T07:26:15.990Z,39.94
2024-02-29T07:30:16.075Z,40.99
2024-02-29T07:34:16.273Z,40.91
2024-02-29T07:38:16.318Z,39.53
2024-02-29T07:42:16.433Z,41.22
2024-02-29T07:46:16.591Z,40.94
2024-02-29T07:50:16.620Z,53.46
2024-02-29T07:54:16.733Z,40.94
2024-02-29T07:58:17.150Z,40.43
2024-02-29T08:02:16.989Z,39.29
2024-02-29T08:06:17.120Z,38.51
2024-02-29T08:10:17.586Z,39.12
2024-02-29T08:14:20.596Z,39.76
2024-02-29T08:18:17.431Z,39.4
2024-02-29T08:22:17.574Z,39.6
2024-02-29T08:26:17.701Z,39.34
2024-02-29T08:30:17.793Z,38.59
2024-02-29T08:34:17.997Z,38.35
2024-02-29T08:38:17.987Z,38.65
2024-02-29T08:42:18.091Z,39.2
2024-02-29T08:46:18.307Z,40.2
2024-02-29T08:50:18.417Z,38.67
2024-02-29T08:54:18.468Z,38.13
2024-02-29T08:58:18.587Z,38.05
2024-02-29T09:02:18.652Z,38.96
2024-02-29T09:06:18.797Z,37.18
2024-02-29T09:10:19.121Z,38.91
2024-02-29T09:14:19.015Z,38.7
2024-02-29T09:18:19.115Z,38.68
2024-02-29T09:22:19.340Z,38.15
2024-02-29T09:26:19.389Z,37.88
2024-02-29T09:30:19.537Z,37.79
2024-02-29T09:34:19.661Z,39.51
2024-02-29T09:38:19.669Z,38.98
2024-02-29T09:42:19.858Z,40.09
2024-02-29T09:46:20.006Z,38.96
2024-02-29T09:50:20.055Z,36.96
2024-02-29T09:54:20.198Z,37.88
2024-02-29T09:58:20.402Z,37.03
2024-02-29T10:02:20.365Z,37.25
2024-02-29T10:06:20.511Z,37.79
2024-02-29T10:10:20.693Z,39.53
2024-02-29T10:14:20.735Z,38.71
2024-02-29T10:18:20.938Z,37.27
2024-02-29T10:22:21.046Z,38.31
2024-02-29T10:26:21.073Z,38.36
2024-02-29T10:30:21.160Z,38.36
2024-02-29T10:34:21.330Z,37.55
2024-02-29T10:38:21.414Z,37.4
2024-02-29T10:42:21.512Z,37.87
2024-02-29T10:46:21.707Z,37.53
2024-02-29T10:50:21.809Z,37.8
2024-02-29T10:54:21.875Z,37.33
2024-02-29T10:58:22.030Z,38.36
2024-02-29T11:02:22.122Z,40.9
2024-02-29T11:06:22.191Z,36.76
2024-02-29T11:10:22.401Z,36.36
2024-02-29T11:14:22.414Z,38.16
2024-02-29T11:18:22.532Z,37.73
2024-02-29T11:22:22.746Z,37.44
2024-02-29T11:26:22.749Z,37.8
2024-02-29T11:30:22.854Z,37.31
2024-02-29T11:34:23.048Z,37.55
2024-02-29T11:38:29.203Z,38.85
2024-02-29T11:38:39.864Z,38.85
2024-02-29T11:42:23.204Z,36.75
2024-02-29T11:46:23.417Z,36.75
2024-02-29T11:50:23.424Z,36.85
2024-02-29T11:54:26.742Z,37.88
2024-02-29T11:58:23.711Z,37.06
2024-02-29T12:02:23.784Z,37.88
2024-02-29T12:06:23.916Z,36.35
2024-02-29T12:10:24.104Z,35.69
2024-02-29T12:14:24.135Z,36.47
2024-02-29T12:18:24.247Z,36.53
2024-02-29T12:22:24.392Z,37.01
2024-02-29T12:26:24.511Z,37.87
2024-02-29T12:30:24.614Z,37.65
2024-02-29T12:34:24.733Z,36.64
2024-02-29T12:38:24.806Z,36.93
2024-02-29T12:42:24.920Z,37.35
2024-02-29T12:46:25.161Z,37.16
2024-02-29T12:50:25.171Z,37.07
2024-02-29T12:54:25.279Z,37.87
2024-02-29T12:58:25.477Z,37.93
2024-02-29T13:02:25.497Z,36.71
2024-02-29T13:06:25.606Z,37.06
2024-02-29T13:10:25.905Z,38.15
2024-02-29T13:14:25.840Z,37.73
2024-02-29T13:18:25.955Z,37.02
2024-02-29T13:22:26.108Z,37.62
2024-02-29T13:26:26.178Z,37.65
2024-02-29T13:30:26.303Z,36.93
2024-02-29T13:34:26.427Z,37.94
2024-02-29T13:38:26.536Z,38.49
2024-02-29T13:42:26.638Z,37.8
2024-02-29T13:46:26.832Z,38.1
2024-02-29T13:50:26.866Z,37.16
2024-02-29T13:54:27.003Z,36.78
2024-02-29T13:58:27.115Z,36.36
2024-02-29T14:02:27.228Z,36.47
2024-02-29T14:06:27.303Z,37.87
2024-02-29T14:10:27.514Z,37.6
2024-02-29T14:14:27.586Z,38.35
2024-02-29T14:18:27.657Z,37.8
2024-02-29T14:22:27.751Z,38.42
2024-02-29T14:26:27.879Z,38.15
2024-02-29T14:30:28.000Z,38.4
2024-02-29T14:34:28.126Z,38.24
2024-02-29T14:38:28.190Z,38.6
2024-02-29T14:42:28.430Z,39.07
2024-02-29T14:46:28.443Z,38.95
2024-02-29T14:50:28.537Z,38.67
2024-02-29T14:54:28.686Z,38.16
2024-02-29T14:58:30.698Z,37.84
2024-02-29T15:02:28.902Z,38.13
2024-02-29T15:06:28.990Z,38.18
2024-02-29T15:10:29.208Z,37.27
2024-02-29T15:14:29.246Z,37.6
2024-02-29T15:18:29.435Z,38.05
2024-02-29T15:22:29.482Z,38.15
2024-02-29T15:26:29.619Z,37.98
2024-02-29T15:30:29.756Z,37.47
2024-02-29T15:34:29.889Z,37.84
2024-02-29T15:38:29.949Z,37.85
2024-02-29T15:42:30.034Z,36.84
2024-02-29T15:46:30.219Z,38.15
2024-02-29T15:50:30.265Z,39.78
2024-02-29T15:54:30.368Z,38.16
2024-02-29T15:58:30.670Z,39.47
2024-02-29T16:02:32.780Z,38.9
2024-02-29T16:06:30.695Z,38.44
2024-02-29T16:10:30.957Z,38.35
2024-02-29T16:14:32.931Z,37.79
2024-02-29T16:18:31.047Z,36.78
2024-02-29T16:22:31.249Z,37.96
2024-02-29T16:26:31.285Z,36.94
2024-02-29T16:30:31.380Z,38.75
2024-02-29T16:34:31.553Z,38.42
2024-02-29T16:38:31.623Z,37.84
2024-02-29T16:42:31.741Z,37.6
2024-02-29T16:46:31.946Z,38.27
2024-02-29T16:50:31.947Z,38.42
2024-02-29T16:54:32.094Z,37.53
2024-02-29T16:58:32.279Z,37.84
2024-02-29T17:02:32.311Z,40.63
2024-02-29T17:06:32.448Z,38.45
2024-02-29T17:10:32.564Z,38.93
2024-02-29T17:14:32.653Z,38.9
2024-02-29T17:18:32.753Z,38.4
2024-02-29T17:22:32.884Z,36.71
2024-02-29T17:26:32.987Z,37.73
2024-02-29T17:30:33.096Z,36.71
2024-02-29T17:34:33.240Z,37.65
2024-02-29T17:38:33.376Z,38.42
2024-02-29T17:42:33.449Z,38.71
2024-02-29T17:46:33.602Z,36.51
2024-02-29T17:50:33.681Z,36.87
2024-02-29T17:54:33.775Z,37.5
2024-02-29T17:58:33.870Z,37.33
2024-02-29T18:02:33.989Z,37.34
2024-02-29T18:06:34.149Z,36.47
2024-02-29T18:10:34.268Z,36.71
2024-02-29T18:14:34.335Z,36.84
2024-02-29T18:18:34.451Z,37.79
2024-02-29T18:22:34.587Z,37.88
2024-02-29T18:26:34.721Z,38.05
2024-02-29T18:30:34.802Z,37.01
2024-02-29T18:34:34.906Z,37.55
2024-02-29T18:38:35.003Z,37.84
2024-02-29T18:42:35.109Z,38.56
2024-02-29T18:46:35.294Z,38.4
2024-02-29T18:50:35.391Z,37.22
2024-02-29T18:54:35.504Z,37.31
2024-02-29T18:58:35.558Z,36.75
2024-02-29T19:02:35.729Z,36.96
2024-02-29T19:06:35.808Z,36.71
2024-02-29T19:10:35.968Z,37.07
2024-02-29T19:14:36.046Z,36.24
2024-02-29T19:18:36.138Z,37.14
2024-02-29T19:22:36.545Z,37.06
2024-02-29T19:26:36.368Z,35.74
2024-02-29T19:30:36.506Z,36.56
2024-02-29T19:34:36.610Z,35.98
2024-02-29T19:38:36.728Z,36.02
2024-02-29T19:42:36.829Z,35.98
2024-02-29T19:46:36.943Z,35.93
2024-02-29T19:50:37.064Z,35.64
2024-02-29T19:54:37.217Z,35.41
2024-02-29T19:58:37.277Z,35.73
2024-02-29T20:02:37.378Z,36.71
2024-02-29T20:06:37.538Z,36.27
2024-02-29T20:10:37.747Z,36.26
2024-02-29T20:14:37.754Z,36.32
2024-02-29T20:18:37.866Z,35.47
2024-02-29T20:22:37.971Z,35.58
2024-02-29T20:26:38.085Z,35.88
2024-02-29T20:30:38.179Z,35.64
2024-02-29T20:34:38.346Z,35.82
2024-02-29T20:38:38.423Z,35.76
2024-02-29T20:42:38.559Z,35.25
2024-02-29T20:46:38.628Z,35.48
2024-02-29T20:50:38.731Z,36.33
2024-02-29T20:54:38.865Z,36.07
2024-02-29T20:58:39.003Z,36.12
2024-02-29T21:02:39.137Z,36.39
2024-02-29T21:06:39.203Z,36.45
2024-02-29T21:10:39.356Z,35.01
2024-02-29T21:14:39.424Z,35.94
2024-02-29T21:18:39.615Z,35.48
2024-02-29T21:22:39.668Z,35.54
2024-02-29T21:26:39.742Z,35.37
2024-02-29T21:30:39.876Z,35.37
2024-02-29T21:34:40.034Z,35.74
2024-02-29T21:38:40.095Z,35.33
2024-02-29T21:42:40.242Z,34.92
2024-02-29T21:46:40.335Z,34.92
2024-02-29T21:50:40.427Z,34.53
2024-02-29T21:54:40.567Z,34.87
2024-02-29T21:58:40.708Z,34.82
2024-02-29T22:02:40.811Z,35.15
2024-02-29T22:06:40.940Z,34.67
2024-02-29T22:10:41.997Z,34.95
2024-02-29T22:14:41.144Z,35.58
2024-02-29T22:18:41.222Z,34.84
2024-02-29T22:22:41.352Z,35.2
2024-02-29T22:26:41.494Z,35.14
2024-02-29T22:30:41.666Z,34.87
2024-02-29T22:34:41.676Z,35.58
2024-02-29T22:38:41.816Z,34.94
2024-02-29T22:42:41.946Z,34.73
2024-02-29T22:46:42.073Z,34.4
2024-02-29T22:50:42.172Z,34.35
2024-02-29T22:54:42.245Z,34.4
2024-02-29T22:58:42.384Z,34.2
2024-02-29T23:02:42.481Z,34.07
2024-02-29T23:06:42.632Z,34.01
2024-02-29T23:10:42.806Z,33.92
2024-02-29T23:14:42.807Z,34.57
2024-02-29T23:18:42.917Z,34.4
2024-02-29T23:22:43.060Z,34.94
2024-02-29T23:26:43.168Z,33.9
2024-02-29T23:30:43.297Z,34.35
2024-02-29T23:34:43.428Z,33.69
2024-02-29T23:38:43.496Z,33.53
2024-02-29T23:42:43.598Z,33.8
2024-02-29T23:46:43.747Z,33.46
2024-02-29T23:50:43.843Z,33.88
2024-02-29T23:54:43.983Z,33.92
2024-02-29T23:58:44.076Z,33.53
